createdAt,value
2022-11-14T00:01:08.356Z,78.80
2022-11-14T00:06:13.488Z,79.00
2022-11-14T00:11:17.209Z,78.80
2022-11-14T00:16:20.660Z,78.80
2022-11-14T00:21:25.429Z,78.80
2022-11-14T00:26:28.829Z,78.90
2022-11-14T00:31:32.595Z,78.70
2022-11-14T00:36:38.008Z,78.70
2022-11-14T00:41:41.628Z,78.90
2022-11-14T00:46:45.003Z,78.90
2022-11-14T00:51:49.763Z,79.00
2022-11-14T00:56:53.304Z,78.90
2022-11-14T01:01:58.061Z,79.00
2022-11-14T01:07:02.995Z,79.00
2022-11-14T01:12:06.731Z,79.00
2022-11-14T01:17:10.369Z,79.00
2022-11-14T01:22:15.167Z,78.80
2022-11-14T01:27:18.763Z,78.80
2022-11-14T01:32:22.345Z,78.90
2022-11-14T01:37:27.076Z,78.80
2022-11-14T01:42:30.477Z,78.70
2022-11-14T01:47:34.776Z,78.50
2022-11-14T01:52:41.350Z,78.50
2022-11-14T01:57:47.907Z,78.60
2022-11-14T02:02:51.555Z,78.50
2022-11-14T02:07:56.670Z,78.80
2022-11-14T02:13:00.104Z,78.90
2022-11-14T02:18:03.876Z,78.90
2022-11-14T02:23:08.931Z,79.10
2022-11-14T02:28:12.369Z,79.20
2022-11-14T02:33:16.671Z,79.20
2022-11-14T02:38:21.380Z,79.10
2022-11-14T02:43:24.724Z,80.00
2022-11-14T02:48:28.761Z,78.90
2022-11-14T02:53:33.767Z,79.20
2022-11-14T02:58:37.158Z,79.40
2022-11-14T03:03:40.474Z,79.60
2022-11-14T03:08:45.200Z,79.70
2022-11-14T03:13:48.612Z,79.50
2022-11-14T03:18:52.012Z,79.70
2022-11-14T03:23:56.821Z,79.90
2022-11-14T03:29:00.147Z,79.80
2022-11-14T03:34:03.807Z,79.90
2022-11-14T03:39:08.685Z,80.00
2022-11-14T03:44:12.163Z,80.00
2022-11-14T03:49:15.549Z,80.20
2022-11-14T03:54:20.286Z,80.20
2022-11-14T03:59:23.913Z,80.50
2022-11-14T04:04:27.271Z,80.50
2022-11-14T04:09:31.961Z,80.20
2022-11-14T04:14:35.333Z,80.20
2022-11-14T04:19:38.726Z,80.20
2022-11-14T04:24:43.429Z,80.30
2022-11-14T04:29:47.049Z,80.30
2022-11-14T04:34:51.030Z,80.20
2022-11-14T04:39:58.795Z,80.10
2022-11-14T04:45:02.264Z,80.10
2022-11-14T04:50:06.619Z,80.20
2022-11-14T04:55:11.803Z,80.10
2022-11-14T05:00:16.310Z,80.20
2022-11-14T05:05:19.674Z,80.20
2022-11-14T05:10:24.631Z,80.30
2022-11-14T05:15:28.072Z,80.40
2022-11-14T05:20:31.840Z,80.30
2022-11-14T05:25:36.556Z,80.30
2022-11-14T05:30:40.034Z,81.20
2022-11-14T05:35:43.732Z,80.20
2022-11-14T05:40:48.691Z,80.30
2022-11-14T05:45:52.090Z,80.30
2022-11-14T05:50:55.930Z,80.40
2022-11-14T05:56:04.180Z,80.50
2022-11-14T06:01:09.045Z,80.50
2022-11-14T06:06:15.043Z,80.40
2022-11-14T06:11:21.671Z,80.30
2022-11-14T06:16:25.394Z,80.40
2022-11-14T06:21:28.772Z,80.40
2022-11-14T06:26:34.124Z,80.30
2022-11-14T06:31:37.512Z,80.20
2022-11-14T06:36:41.312Z,80.20
2022-11-14T06:41:46.058Z,80.10
2022-11-14T06:46:50.176Z,80.20
2022-11-14T06:51:53.548Z,80.20
2022-11-14T06:56:58.226Z,80.10
2022-11-14T07:02:01.591Z,80.20
2022-11-14T07:07:05.074Z,80.20
2022-11-14T07:12:10.790Z,80.10
2022-11-14T07:17:14.144Z,80.20
2022-11-14T07:22:17.663Z,80.20
2022-11-14T07:27:22.361Z,80.20
2022-11-14T07:32:25.878Z,80.20
2022-11-14T07:37:29.378Z,80.30
2022-11-14T07:42:34.097Z,80.30
2022-11-14T07:47:37.559Z,80.40
2022-11-14T07:52:42.364Z,80.50
2022-11-14T07:57:49.341Z,80.20
2022-11-14T08:02:53.229Z,80.30
2022-11-14T08:07:56.611Z,80.40
2022-11-14T08:13:30.509Z,80.20
2022-11-14T08:18:25.876Z,80.20
2022-11-14T08:23:29.254Z,80.10
2022-11-14T08:28:34.336Z,80.30
2022-11-14T08:33:37.928Z,80.40
2022-11-14T08:38:41.991Z,80.30
2022-11-14T08:43:46.716Z,80.60
2022-11-14T08:48:50.079Z,80.50
2022-11-14T08:53:53.571Z,80.50
2022-11-14T08:58:58.265Z,80.50
2022-11-14T09:04:02.181Z,80.40
2022-11-14T09:09:05.732Z,80.30
2022-11-14T09:14:10.481Z,80.40
2022-11-14T09:19:13.833Z,80.40
2022-11-14T09:24:17.189Z,80.30
2022-11-14T09:29:22.690Z,80.50
2022-11-14T09:34:26.109Z,80.30
2022-11-14T09:39:29.793Z,80.50
2022-11-14T09:44:57.741Z,81.20
2022-11-14T09:50:06.546Z,81.30
2022-11-14T09:55:13.628Z,81.10
2022-11-14T10:00:21.282Z,80.90
2022-11-14T10:05:48.125Z,80.70
2022-11-14T10:10:55.093Z,80.70
2022-11-14T10:16:06.014Z,80.70
2022-11-14T10:21:22.912Z,80.60
2022-11-14T10:26:31.265Z,80.60
2022-11-14T10:31:45.128Z,80.50
2022-11-14T10:36:56.661Z,80.50
2022-11-14T10:42:07.849Z,80.50
2022-11-14T10:47:16.794Z,80.50
2022-11-14T10:52:23.689Z,80.50
2022-11-14T10:57:29.471Z,80.50
2022-11-14T11:02:49.691Z,80.50
2022-11-14T11:08:36.183Z,80.50
2022-11-14T11:13:36.881Z,80.60
2022-11-14T11:18:41.887Z,80.50
2022-11-14T11:23:50.869Z,80.50
2022-11-14T11:29:15.357Z,80.50
2022-11-14T11:34:25.557Z,80.70
2022-11-14T11:39:31.384Z,81.00
2022-11-14T11:44:41.531Z,81.00
2022-11-14T11:49:53.256Z,81.20
2022-11-14T11:55:03.883Z,81.20
2022-11-14T12:00:15.332Z,81.10
2022-11-14T12:05:28.806Z,81.10
2022-11-14T12:10:37.351Z,81.20
2022-11-14T12:15:52.576Z,80.90
2022-11-14T12:21:13.564Z,80.70
2022-11-14T12:26:45.872Z,80.50
2022-11-14T12:31:58.114Z,80.40
2022-11-14T12:37:10.602Z,80.40
2022-11-14T12:42:20.386Z,80.20
2022-11-14T12:47:26.083Z,79.70
2022-11-14T12:52:50.342Z,79.50
2022-11-14T12:58:03.560Z,79.40
2022-11-14T13:03:26.814Z,79.10
2022-11-14T13:09:03.145Z,78.90
2022-11-14T13:14:27.144Z,78.80
2022-11-14T13:19:48.063Z,78.50
2022-11-14T13:25:19.030Z,78.50
2022-11-14T13:30:56.368Z,77.80
2022-11-14T13:36:05.506Z,77.50
2022-11-14T13:41:47.100Z,77.20
2022-11-14T13:47:20.276Z,77.10
2022-11-14T13:52:27.562Z,76.30
2022-11-14T13:57:45.232Z,76.20
2022-11-14T14:03:17.883Z,76.30
2022-11-14T14:08:37.898Z,76.10
2022-11-14T14:13:55.635Z,75.90
2022-11-14T14:19:06.113Z,76.00
2022-11-14T14:24:18.979Z,75.50
2022-11-14T14:29:26.273Z,75.60
2022-11-14T14:34:31.759Z,75.60
2022-11-14T14:39:35.421Z,75.50
2022-11-14T14:44:41.290Z,75.60
2022-11-14T14:49:45.395Z,75.50
2022-11-14T14:54:55.930Z,75.40
2022-11-14T15:00:07.194Z,75.40
2022-11-14T15:05:10.993Z,75.30
2022-11-14T15:10:23.319Z,75.30
2022-11-14T15:15:28.947Z,75.20
2022-11-14T15:20:32.369Z,75.30
2022-11-14T15:25:35.905Z,75.40
2022-11-14T15:30:40.792Z,75.50
2022-11-14T15:35:44.191Z,75.50
2022-11-14T15:41:11.801Z,75.40
2022-11-14T15:46:37.814Z,75.60
2022-11-14T15:51:44.862Z,75.60
2022-11-14T15:56:48.652Z,75.50
2022-11-14T16:01:55.557Z,75.50
2022-11-14T16:06:59.305Z,75.40
2022-11-14T16:12:02.830Z,75.30
2022-11-14T16:17:11.426Z,75.40
2022-11-14T16:22:18.468Z,75.40
2022-11-14T16:27:22.156Z,75.40
2022-11-14T16:32:28.344Z,75.30
2022-11-14T16:37:31.988Z,75.50
2022-11-14T16:42:35.404Z,75.60
2022-11-14T16:47:46.046Z,75.70
2022-11-14T16:52:49.488Z,75.70
2022-11-14T16:57:53.119Z,75.70
2022-11-14T17:02:57.880Z,75.80
2022-11-14T17:08:01.240Z,75.80
2022-11-14T17:13:04.886Z,75.80
2022-11-14T17:18:09.624Z,75.70
2022-11-14T17:23:13.289Z,75.50
2022-11-14T17:28:16.706Z,75.40
2022-11-14T17:33:21.635Z,75.40
2022-11-14T17:38:25.435Z,75.50
2022-11-14T17:43:34.329Z,75.70
2022-11-14T17:48:42.263Z,75.70
2022-11-14T17:53:45.873Z,75.40
2022-11-14T17:58:51.918Z,75.60
2022-11-14T18:04:01.637Z,75.80
2022-11-14T18:09:11.523Z,75.90
2022-11-14T18:14:17.892Z,75.70
2022-11-14T18:19:22.647Z,75.70
2022-11-14T18:24:26.364Z,75.40
2022-11-14T18:29:31.152Z,75.50
2022-11-14T18:34:37.650Z,75.60
2022-11-14T18:39:41.039Z,75.60
2022-11-14T18:44:44.455Z,75.80
2022-11-14T18:49:49.281Z,75.90
2022-11-14T18:54:52.618Z,75.90
2022-11-14T18:59:55.990Z,75.90
2022-11-14T19:05:01.564Z,75.80
2022-11-14T19:10:05.617Z,75.70
2022-11-14T19:15:11.170Z,75.80
2022-11-14T19:20:16.118Z,75.80
2022-11-14T19:25:21.087Z,75.80
2022-11-14T19:30:24.828Z,75.90
2022-11-14T19:35:30.178Z,75.80
2022-11-14T19:42:14.013Z,75.10
2022-11-14T19:47:17.386Z,75.90
2022-11-14T19:52:20.841Z,75.80
2022-11-14T19:57:25.616Z,75.90
2022-11-14T20:02:29.893Z,76.00
2022-11-14T20:07:35.429Z,76.10
2022-11-14T20:12:40.311Z,76.20
2022-11-14T20:17:43.958Z,76.10
2022-11-14T20:22:47.406Z,76.10
2022-11-14T20:27:52.518Z,76.20
2022-11-14T20:32:55.973Z,76.20
2022-11-14T20:38:04.285Z,76.10
2022-11-14T20:43:09.953Z,76.10
2022-11-14T20:48:13.318Z,76.30
2022-11-14T20:53:16.682Z,76.20
2022-11-14T20:58:21.576Z,76.30
2022-11-14T21:03:25.709Z,76.10
2022-11-14T21:08:29.871Z,76.10
2022-11-14T21:13:55.056Z,76.00
2022-11-14T21:18:58.598Z,75.90
2022-11-14T21:24:02.127Z,75.70
2022-11-14T21:29:09.101Z,75.90
2022-11-14T21:34:14.294Z,76.30
2022-11-14T21:39:17.993Z,76.30
2022-11-14T21:44:23.224Z,76.20
2022-11-14T21:49:26.548Z,76.50
2022-11-14T21:54:30.033Z,76.50
2022-11-14T21:59:34.915Z,76.80
2022-11-14T22:04:38.862Z,77.00
2022-11-14T22:09:45.316Z,77.10
2022-11-14T22:14:50.335Z,77.40
2022-11-14T22:19:53.951Z,77.30
2022-11-14T22:24:58.640Z,77.10
2022-11-14T22:30:03.807Z,77.20
2022-11-14T22:35:07.966Z,77.00
2022-11-14T22:40:12.567Z,77.10
2022-11-14T22:45:17.507Z,77.30
2022-11-14T22:50:20.919Z,77.60
2022-11-14T22:55:24.378Z,77.70
2022-11-14T23:00:29.164Z,77.70
2022-11-14T23:05:36.702Z,77.60
2022-11-14T23:10:40.085Z,77.40
2022-11-14T23:15:48.935Z,77.40
2022-11-14T23:20:52.323Z,77.60
2022-11-14T23:25:55.708Z,77.50
2022-11-14T23:31:01.164Z,77.60
2022-11-14T23:36:05.084Z,77.60
2022-11-14T23:41:08.838Z,77.50
2022-11-14T23:46:13.838Z,77.40
2022-11-14T23:51:17.602Z,77.10
2022-11-14T23:56:21.011Z,77.10
